createdAt,value
2018-06-30T00:00:10.208Z,18.994751
2018-06-30T00:00:21.969Z,18.98468
2018-06-30T00:00:33.714Z,18.974609
2018-06-30T00:00:45.450Z,18.98468
2018-06-30T00:00:57.218Z,18.974609
2018-06-30T00:01:08.971Z,18.98468
2018-06-30T00:01:19.771Z,18.974609
2018-06-30T00:01:31.535Z,18.954468
2018-06-30T00:01:43.289Z,18.944397
2018-06-30T00:01:54.034Z,18.924255
2018-06-30T00:02:05.789Z,18.914185
2018-06-30T00:02:17.551Z,18.904114
2018-06-30T00:02:29.310Z,18.904114
2018-06-30T00:02:41.052Z,18.873901
2018-06-30T00:02:52.847Z,18.873901
2018-06-30T00:03:04.585Z,18.863831
2018-06-30T00:03:16.346Z,18.863831
2018-06-30T00:03:28.099Z,18.843689
2018-06-30T00:03:39.869Z,18.843689
2018-06-30T00:03:51.613Z,18.833618
2018-06-30T00:04:02.358Z,18.833618
2018-06-30T00:04:14.101Z,18.833618
2018-06-30T00:04:25.886Z,18.833618
2018-06-30T00:04:36.638Z,18.843689
2018-06-30T00:04:48.412Z,18.843689
2018-06-30T00:05:00.170Z,18.843689
2018-06-30T00:05:11.951Z,18.843689
2018-06-30T00:05:22.703Z,18.833618
2018-06-30T00:05:34.454Z,18.843689
2018-06-30T00:05:46.200Z,18.833618
2018-06-30T00:05:57.943Z,18.833618
2018-06-30T00:06:09.719Z,18.823547
2018-06-30T00:06:21.482Z,18.833618
2018-06-30T00:06:33.248Z,18.843689
2018-06-30T00:06:44.992Z,18.843689
2018-06-30T00:06:56.737Z,18.873901
2018-06-30T00:07:07.496Z,18.873901
2018-06-30T00:07:19.243Z,18.904114
2018-06-30T00:07:30.993Z,18.904114
2018-06-30T00:07:42.757Z,18.914185
2018-06-30T00:07:54.511Z,18.924255
2018-06-30T00:08:06.281Z,18.924255
2018-06-30T00:08:18.042Z,18.944397
2018-06-30T00:08:29.806Z,18.944397
2018-06-30T00:08:41.559Z,18.954468
2018-06-30T00:08:53.326Z,18.954468
2018-06-30T00:09:04.085Z,18.954468
2018-06-30T00:09:15.829Z,18.954468
2018-06-30T00:09:27.590Z,18.974609
2018-06-30T00:09:38.334Z,18.98468
2018-06-30T00:09:50.088Z,18.974609
2018-06-30T00:10:01.840Z,18.974609
2018-06-30T00:10:13.599Z,18.974609
2018-06-30T00:10:25.359Z,18.974609
2018-06-30T00:10:36.094Z,18.974609
2018-06-30T00:10:47.854Z,18.944397
2018-06-30T00:10:58.594Z,18.944397
2018-06-30T00:11:10.361Z,18.924255
2018-06-30T00:11:21.110Z,18.904114
2018-06-30T00:11:32.899Z,18.904114
2018-06-30T00:11:43.646Z,18.863831
2018-06-30T00:11:55.414Z,18.863831
2018-06-30T00:12:06.166Z,18.843689
2018-06-30T00:12:17.906Z,18.833618
2018-06-30T00:12:29.640Z,18.823547
2018-06-30T00:12:41.422Z,18.803406
2018-06-30T00:12:53.191Z,18.823547
2018-06-30T00:13:04.955Z,18.803406
2018-06-30T00:13:16.724Z,18.803406
2018-06-30T00:13:28.481Z,18.803406
2018-06-30T00:13:39.229Z,18.793335
2018-06-30T00:13:51.007Z,18.773193
2018-06-30T00:14:01.759Z,18.803406
2018-06-30T00:14:12.504Z,18.803406
2018-06-30T00:14:24.247Z,18.803406
2018-06-30T00:14:34.996Z,18.793335
2018-06-30T00:14:46.822Z,18.803406
2018-06-30T00:14:58.562Z,18.803406
2018-06-30T00:15:09.361Z,18.823547
2018-06-30T00:15:21.086Z,18.823547
2018-06-30T00:15:32.865Z,18.823547
2018-06-30T00:15:44.610Z,18.843689
2018-06-30T00:15:56.360Z,18.843689
2018-06-30T00:16:08.107Z,18.863831
2018-06-30T00:16:19.868Z,18.863831
2018-06-30T00:16:30.628Z,18.863831
2018-06-30T00:16:42.381Z,18.863831
2018-06-30T00:16:54.113Z,18.863831
2018-06-30T00:17:05.918Z,18.873901
2018-06-30T00:17:17.632Z,18.873901
2018-06-30T00:17:28.387Z,18.873901
2018-06-30T00:17:40.143Z,18.904114
2018-06-30T00:17:51.898Z,18.873901
2018-06-30T00:18:03.686Z,18.904114
2018-06-30T00:18:15.428Z,18.904114
2018-06-30T00:18:27.239Z,18.904114
2018-06-30T00:18:38.971Z,18.873901
2018-06-30T00:18:50.765Z,18.873901
2018-06-30T00:19:02.525Z,18.863831
2018-06-30T00:19:14.279Z,18.873901
2018-06-30T00:19:26.033Z,18.873901
2018-06-30T00:19:37.799Z,18.863831
2018-06-30T00:19:49.541Z,18.873901
2018-06-30T00:20:01.301Z,18.863831
2018-06-30T00:20:13.078Z,18.873901
2018-06-30T00:20:24.829Z,18.873901
2018-06-30T00:20:36.581Z,18.873901
2018-06-30T00:20:48.338Z,18.873901
2018-06-30T00:20:58.092Z,18.904114
2018-06-30T00:21:09.823Z,18.904114
2018-06-30T00:21:21.592Z,18.904114
2018-06-30T00:21:33.356Z,18.914185
2018-06-30T00:21:45.114Z,18.904114
2018-06-30T00:21:56.885Z,18.914185
2018-06-30T00:22:08.621Z,18.904114
2018-06-30T00:22:20.374Z,18.914185
2018-06-30T00:22:32.143Z,18.914185
2018-06-30T00:22:43.919Z,18.924255
2018-06-30T00:22:55.711Z,18.914185
2018-06-30T00:23:07.424Z,18.904114
2018-06-30T00:23:19.185Z,18.904114
2018-06-30T00:23:30.941Z,18.873901
2018-06-30T00:23:42.701Z,18.873901
2018-06-30T00:23:54.485Z,18.863831
2018-06-30T00:24:06.243Z,18.843689
2018-06-30T00:24:16.992Z,18.863831
2018-06-30T00:24:28.771Z,18.843689
2018-06-30T00:24:40.538Z,18.833618
2018-06-30T00:24:52.307Z,18.823547
2018-06-30T00:25:04.061Z,18.803406
2018-06-30T00:25:14.806Z,18.823547
2018-06-30T00:25:26.573Z,18.803406
2018-06-30T00:25:38.361Z,18.803406
2018-06-30T00:25:50.129Z,18.793335
2018-06-30T00:26:01.898Z,18.773193
2018-06-30T00:26:13.629Z,18.793335
2018-06-30T00:26:25.382Z,18.773193
2018-06-30T00:26:37.129Z,18.763123
2018-06-30T00:26:48.886Z,18.73291
2018-06-30T00:27:00.618Z,18.73291
2018-06-30T00:27:12.376Z,18.73291
2018-06-30T00:27:24.154Z,18.73291
2018-06-30T00:27:35.903Z,18.73291
2018-06-30T00:27:47.662Z,18.73291
2018-06-30T00:27:59.396Z,18.73291
2018-06-30T00:28:11.152Z,18.73291
2018-06-30T00:28:22.907Z,18.73291
2018-06-30T00:28:34.678Z,18.763123
2018-06-30T00:28:46.467Z,18.763123
2018-06-30T00:28:58.240Z,18.742981
2018-06-30T00:29:09.993Z,18.763123
2018-06-30T00:29:21.750Z,18.742981
2018-06-30T00:29:33.502Z,18.742981
2018-06-30T00:29:44.247Z,18.742981
2018-06-30T00:29:53.978Z,18.763123
2018-06-30T00:30:05.730Z,18.763123
2018-06-30T00:30:16.477Z,18.763123
2018-06-30T00:30:28.219Z,18.763123
2018-06-30T00:30:39.001Z,18.763123
2018-06-30T00:30:49.743Z,18.763123
2018-06-30T00:31:01.493Z,18.763123
2018-06-30T00:31:12.243Z,18.773193
2018-06-30T00:31:23.988Z,18.773193
2018-06-30T00:31:35.726Z,18.773193
2018-06-30T00:31:46.484Z,18.793335
2018-06-30T00:31:58.247Z,18.773193
2018-06-30T00:32:10.009Z,18.773193
2018-06-30T00:32:21.763Z,18.773193
2018-06-30T00:32:33.512Z,18.773193
2018-06-30T00:32:45.263Z,18.773193
2018-06-30T00:32:56.017Z,18.773193
2018-06-30T00:33:07.790Z,18.773193
2018-06-30T00:33:17.547Z,18.773193
2018-06-30T00:33:29.281Z,18.773193
2018-06-30T00:33:41.057Z,18.763123
2018-06-30T00:33:52.807Z,18.763123
2018-06-30T00:34:04.566Z,18.763123
2018-06-30T00:34:15.318Z,18.763123
2018-06-30T00:34:26.084Z,18.773193
2018-06-30T00:34:36.829Z,18.763123
2018-06-30T00:34:47.575Z,18.763123
2018-06-30T00:34:59.323Z,18.773193
2018-06-30T00:35:11.068Z,18.773193
2018-06-30T00:35:21.819Z,18.773193
2018-06-30T00:35:34.585Z,18.773193
2018-06-30T00:35:46.340Z,18.773193
2018-06-30T00:35:58.113Z,18.763123
2018-06-30T00:36:09.849Z,18.773193
2018-06-30T00:36:21.603Z,18.773193
2018-06-30T00:36:31.350Z,18.773193
2018-06-30T00:36:43.135Z,18.773193
2018-06-30T00:36:54.886Z,18.773193
2018-06-30T00:37:06.660Z,18.773193
2018-06-30T00:37:18.408Z,18.763123
2018-06-30T00:37:30.187Z,18.763123
2018-06-30T00:37:41.949Z,18.763123
2018-06-30T00:37:53.695Z,18.763123
2018-06-30T00:38:05.454Z,18.742981
2018-06-30T00:38:17.246Z,18.742981
2018-06-30T00:38:28.972Z,18.73291
2018-06-30T00:38:39.713Z,18.722839
2018-06-30T00:38:51.472Z,18.722839
2018-06-30T00:39:03.227Z,18.702698
2018-06-30T00:39:14.999Z,18.702698
2018-06-30T00:39:26.760Z,18.672485
2018-06-30T00:39:37.512Z,18.682556
2018-06-30T00:39:49.260Z,18.672485
2018-06-30T00:40:01.020Z,18.652344
2018-06-30T00:40:12.772Z,18.672485
2018-06-30T00:40:24.573Z,18.652344
2018-06-30T00:40:35.339Z,18.652344
2018-06-30T00:40:45.081Z,18.652344
2018-06-30T00:40:56.833Z,18.652344
2018-06-30T00:41:06.572Z,18.652344
2018-06-30T00:41:18.336Z,18.642273
2018-06-30T00:41:30.079Z,18.642273
2018-06-30T00:41:41.829Z,18.622131
2018-06-30T00:41:52.567Z,18.612061
2018-06-30T00:42:04.357Z,18.612061
2018-06-30T00:42:16.107Z,18.591919
2018-06-30T00:42:27.871Z,18.591919
2018-06-30T00:42:39.646Z,18.612061
2018-06-30T00:42:51.401Z,18.612061
2018-06-30T00:43:02.136Z,18.612061
2018-06-30T00:43:13.890Z,18.612061
2018-06-30T00:43:24.659Z,18.612061
2018-06-30T00:43:36.382Z,18.591919
2018-06-30T00:43:48.189Z,18.612061
2018-06-30T00:43:59.939Z,18.612061
2018-06-30T00:44:11.714Z,18.612061
2018-06-30T00:44:22.467Z,18.612061
2018-06-30T00:44:33.246Z,18.622131
2018-06-30T00:44:45.008Z,18.612061
2018-06-30T00:44:56.755Z,18.622131
2018-06-30T00:45:08.515Z,18.622131
2018-06-30T00:45:20.289Z,18.622131
2018-06-30T00:45:32.038Z,18.622131
2018-06-30T00:45:43.796Z,18.642273
2018-06-30T00:45:55.541Z,18.622131
2018-06-30T00:46:07.307Z,18.642273
2018-06-30T00:46:19.052Z,18.652344
2018-06-30T00:46:30.798Z,18.622131
2018-06-30T00:46:42.550Z,18.642273
2018-06-30T00:46:53.314Z,18.622131
2018-06-30T00:47:05.063Z,18.612061
2018-06-30T00:47:16.853Z,18.591919
2018-06-30T00:47:27.618Z,18.612061
2018-06-30T00:47:39.406Z,18.581848
2018-06-30T00:47:51.152Z,18.581848
2018-06-30T00:48:00.897Z,18.571777
2018-06-30T00:48:12.644Z,18.571777
2018-06-30T00:48:24.411Z,18.581848
2018-06-30T00:48:36.251Z,18.571777
2018-06-30T00:48:47.911Z,18.571777
2018-06-30T00:48:58.670Z,18.571777
2018-06-30T00:49:11.424Z,18.571777
2018-06-30T00:49:23.178Z,18.571777
2018-06-30T00:49:34.937Z,18.551636
2018-06-30T00:49:46.703Z,18.551636
2018-06-30T00:49:58.455Z,18.551636
2018-06-30T00:50:09.201Z,18.551636
2018-06-30T00:50:19.954Z,18.541565
2018-06-30T00:50:31.729Z,18.551636
2018-06-30T00:50:42.466Z,18.551636
2018-06-30T00:50:53.251Z,18.571777
2018-06-30T00:51:04.993Z,18.551636
2018-06-30T00:51:16.752Z,18.551636
2018-06-30T00:51:28.505Z,18.551636
2018-06-30T00:51:40.272Z,18.551636
2018-06-30T00:51:52.026Z,18.551636
2018-06-30T00:52:03.814Z,18.551636
2018-06-30T00:52:15.576Z,18.551636
2018-06-30T00:52:27.352Z,18.551636
2018-06-30T00:52:39.109Z,18.541565
2018-06-30T00:52:49.867Z,18.551636
2018-06-30T00:53:00.651Z,18.541565
2018-06-30T00:53:12.394Z,18.541565
2018-06-30T00:53:24.166Z,18.541565
2018-06-30T00:53:35.913Z,18.521423
2018-06-30T00:53:47.661Z,18.521423
2018-06-30T00:53:58.420Z,18.521423
2018-06-30T00:54:10.166Z,18.521423
2018-06-30T00:54:21.912Z,18.521423
2018-06-30T00:54:33.660Z,18.521423
2018-06-30T00:54:45.421Z,18.521423
2018-06-30T00:54:57.178Z,18.521423
2018-06-30T00:55:08.941Z,18.501282
2018-06-30T00:55:19.705Z,18.501282
2018-06-30T00:55:31.461Z,18.491211
2018-06-30T00:55:42.226Z,18.501282
2018-06-30T00:55:54.012Z,18.501282
2018-06-30T00:56:05.765Z,18.501282
2018-06-30T00:56:16.509Z,18.521423
2018-06-30T00:56:28.266Z,18.501282
2018-06-30T00:56:40.034Z,18.521423
2018-06-30T00:56:51.783Z,18.501282
2018-06-30T00:57:03.540Z,18.501282
2018-06-30T00:57:15.290Z,18.501282
2018-06-30T00:57:27.033Z,18.501282
2018-06-30T00:57:38.800Z,18.491211
2018-06-30T00:57:50.530Z,18.471069
2018-06-30T00:58:02.291Z,18.471069
2018-06-30T00:58:14.037Z,18.471069
2018-06-30T00:58:25.829Z,18.460999
2018-06-30T00:58:36.579Z,18.440857
2018-06-30T00:58:48.323Z,18.460999
2018-06-30T00:58:59.072Z,18.460999
2018-06-30T00:59:10.836Z,18.460999
2018-06-30T00:59:22.590Z,18.471069
2018-06-30T00:59:34.362Z,18.471069
2018-06-30T00:59:44.107Z,18.471069
2018-06-30T00:59:54.871Z,18.460999
2018-06-30T01:00:06.604Z,18.471069
2018-06-30T01:00:18.364Z,18.471069
2018-06-30T01:00:30.122Z,18.471069
2018-06-30T01:00:40.858Z,18.471069
2018-06-30T01:00:52.626Z,18.471069
2018-06-30T01:01:03.380Z,18.491211
2018-06-30T01:01:15.124Z,18.501282
2018-06-30T01:01:27.883Z,18.491211
2018-06-30T01:01:39.633Z,18.491211
2018-06-30T01:01:51.407Z,18.491211
2018-06-30T01:02:03.163Z,18.471069
2018-06-30T01:02:14.930Z,18.471069
2018-06-30T01:02:26.686Z,18.471069
2018-06-30T01:02:37.423Z,18.471069
2018-06-30T01:02:49.179Z,18.460999
2018-06-30T01:02:59.945Z,18.460999
2018-06-30T01:03:10.697Z,18.460999
2018-06-30T01:03:21.453Z,18.471069
2018-06-30T01:03:33.192Z,18.471069
2018-06-30T01:03:44.936Z,18.471069
2018-06-30T01:03:56.690Z,18.471069
2018-06-30T01:04:07.450Z,18.491211
2018-06-30T01:04:19.217Z,18.491211
2018-06-30T01:04:30.970Z,18.501282
2018-06-30T01:04:42.731Z,18.501282
2018-06-30T01:04:54.470Z,18.501282
2018-06-30T01:05:06.251Z,18.501282
2018-06-30T01:05:16.984Z,18.521423
2018-06-30T01:05:28.745Z,18.521423
2018-06-30T01:05:40.529Z,18.521423
2018-06-30T01:05:52.292Z,18.521423
2018-06-30T01:06:04.075Z,18.521423
2018-06-30T01:06:15.820Z,18.541565
2018-06-30T01:06:27.590Z,18.541565
2018-06-30T01:06:39.350Z,18.541565
2018-06-30T01:06:52.086Z,18.551636
2018-06-30T01:07:03.824Z,18.541565
2018-06-30T01:07:16.561Z,18.551636
2018-06-30T01:07:28.312Z,18.541565
2018-06-30T01:07:40.080Z,18.541565
2018-06-30T01:07:51.840Z,18.551636
2018-06-30T01:08:03.597Z,18.551636
2018-06-30T01:08:14.352Z,18.571777
2018-06-30T01:08:26.103Z,18.571777
2018-06-30T01:08:37.860Z,18.571777
2018-06-30T01:08:47.615Z,18.581848
2018-06-30T01:08:59.374Z,18.591919
2018-06-30T01:09:11.121Z,18.581848
2018-06-30T01:09:22.874Z,18.581848
2018-06-30T01:09:34.633Z,18.581848
2018-06-30T01:09:46.382Z,18.571777
2018-06-30T01:09:56.117Z,18.571777
2018-06-30T01:10:07.876Z,18.571777
2018-06-30T01:10:18.620Z,18.571777
2018-06-30T01:10:30.365Z,18.581848
2018-06-30T01:10:42.101Z,18.551636
2018-06-30T01:10:53.866Z,18.551636
2018-06-30T01:11:05.610Z,18.551636
2018-06-30T01:11:17.390Z,18.551636
2018-06-30T01:11:29.151Z,18.551636
2018-06-30T01:11:40.919Z,18.551636
2018-06-30T01:11:52.704Z,18.551636
2018-06-30T01:12:03.468Z,18.541565
2018-06-30T01:12:14.212Z,18.551636
2018-06-30T01:12:25.961Z,18.551636
2018-06-30T01:12:35.707Z,18.541565
2018-06-30T01:12:47.451Z,18.541565
2018-06-30T01:12:59.211Z,18.541565
2018-06-30T01:13:10.971Z,18.551636
2018-06-30T01:13:21.721Z,18.551636
2018-06-30T01:13:32.477Z,18.541565
2018-06-30T01:13:44.212Z,18.541565
2018-06-30T01:13:55.959Z,18.551636
2018-06-30T01:14:06.711Z,18.551636
2018-06-30T01:14:18.486Z,18.551636
2018-06-30T01:14:30.246Z,18.551636
2018-06-30T01:14:42.006Z,18.571777
2018-06-30T01:14:53.766Z,18.571777
2018-06-30T01:15:05.533Z,18.571777
2018-06-30T01:15:17.275Z,18.571777
2018-06-30T01:15:28.027Z,18.571777
2018-06-30T01:15:39.773Z,18.571777
2018-06-30T01:15:50.520Z,18.581848
2018-06-30T01:16:01.262Z,18.581848
2018-06-30T01:16:12.025Z,18.581848
2018-06-30T01:16:22.788Z,18.571777
2018-06-30T01:16:33.539Z,18.571777
2018-06-30T01:16:45.295Z,18.551636
2018-06-30T01:16:57.042Z,18.541565
2018-06-30T01:17:08.806Z,18.551636
2018-06-30T01:17:20.564Z,18.551636
2018-06-30T01:17:30.299Z,18.541565
2018-06-30T01:17:42.042Z,18.541565
2018-06-30T01:17:53.801Z,18.541565
2018-06-30T01:18:05.600Z,18.541565
2018-06-30T01:18:17.355Z,18.541565
2018-06-30T01:18:29.117Z,18.521423
2018-06-30T01:18:40.867Z,18.521423
2018-06-30T01:18:52.639Z,18.541565
2018-06-30T01:19:04.387Z,18.501282
2018-06-30T01:19:16.134Z,18.491211
2018-06-30T01:19:27.885Z,18.501282
2018-06-30T01:19:39.673Z,18.491211
2018-06-30T01:19:51.434Z,18.491211
2018-06-30T01:20:02.205Z,18.501282
2018-06-30T01:20:13.953Z,18.491211
2018-06-30T01:20:25.709Z,18.501282
2018-06-30T01:20:38.446Z,18.471069
2018-06-30T01:20:50.204Z,18.491211
2018-06-30T01:21:01.962Z,18.501282
2018-06-30T01:21:12.726Z,18.491211
2018-06-30T01:21:23.474Z,18.491211
2018-06-30T01:21:35.229Z,18.491211
2018-06-30T01:21:46.987Z,18.471069
2018-06-30T01:21:58.738Z,18.460999
2018-06-30T01:22:10.505Z,18.471069
2018-06-30T01:22:22.260Z,18.460999
2018-06-30T01:22:34.029Z,18.471069
2018-06-30T01:22:45.775Z,18.460999
2018-06-30T01:22:56.536Z,18.460999
2018-06-30T01:23:08.316Z,18.460999
2018-06-30T01:23:19.079Z,18.460999
2018-06-30T01:23:30.832Z,18.440857
2018-06-30T01:23:42.608Z,18.460999
2018-06-30T01:23:54.370Z,18.460999
2018-06-30T01:24:06.159Z,18.460999
2018-06-30T01:24:17.892Z,18.460999
2018-06-30T01:24:29.647Z,18.460999
2018-06-30T01:24:41.397Z,18.471069
2018-06-30T01:24:53.146Z,18.471069
2018-06-30T01:25:04.904Z,18.471069
2018-06-30T01:25:16.659Z,18.471069
2018-06-30T01:25:28.407Z,18.471069
2018-06-30T01:25:39.155Z,18.491211
2018-06-30T01:25:50.903Z,18.491211
2018-06-30T01:26:02.649Z,18.471069
2018-06-30T01:26:14.399Z,18.491211
2018-06-30T01:26:25.163Z,18.491211
2018-06-30T01:26:36.905Z,18.491211
2018-06-30T01:26:48.667Z,18.491211
2018-06-30T01:27:00.432Z,18.491211
2018-06-30T01:27:11.178Z,18.491211
2018-06-30T01:27:22.942Z,18.501282
2018-06-30T01:27:34.694Z,18.491211
2018-06-30T01:27:45.432Z,18.501282
2018-06-30T01:27:57.185Z,18.491211
2018-06-30T01:28:08.942Z,18.491211
2018-06-30T01:28:20.713Z,18.471069
2018-06-30T01:28:31.460Z,18.491211
2018-06-30T01:28:42.198Z,18.491211
2018-06-30T01:28:53.943Z,18.491211
2018-06-30T01:29:05.693Z,18.491211
2018-06-30T01:29:17.455Z,18.501282
2018-06-30T01:29:29.197Z,18.501282
2018-06-30T01:29:40.936Z,18.491211
2018-06-30T01:29:51.689Z,18.501282
2018-06-30T01:30:03.461Z,18.491211
2018-06-30T01:30:15.213Z,18.501282
2018-06-30T01:30:26.963Z,18.501282
2018-06-30T01:30:38.716Z,18.501282
2018-06-30T01:30:50.457Z,18.501282
2018-06-30T01:31:02.217Z,18.501282
2018-06-30T01:31:13.968Z,18.491211
2018-06-30T01:31:25.717Z,18.491211
2018-06-30T01:31:37.468Z,18.491211
2018-06-30T01:31:49.231Z,18.491211
2018-06-30T01:32:00.988Z,18.491211
2018-06-30T01:32:12.767Z,18.491211
2018-06-30T01:32:23.527Z,18.471069
2018-06-30T01:32:35.287Z,18.491211
2018-06-30T01:32:47.075Z,18.491211
2018-06-30T01:32:58.846Z,18.491211
2018-06-30T01:33:10.588Z,18.501282
2018-06-30T01:33:22.339Z,18.501282
2018-06-30T01:33:33.154Z,18.501282
2018-06-30T01:33:44.865Z,18.501282
2018-06-30T01:33:55.640Z,18.471069
2018-06-30T01:34:07.387Z,18.491211
2018-06-30T01:34:19.134Z,18.471069
2018-06-30T01:34:29.880Z,18.460999
2018-06-30T01:34:42.624Z,18.460999
2018-06-30T01:34:54.386Z,18.460999
2018-06-30T01:35:06.133Z,18.471069
2018-06-30T01:35:17.916Z,18.460999
2018-06-30T01:35:29.663Z,18.471069
2018-06-30T01:35:41.438Z,18.471069
2018-06-30T01:35:52.180Z,18.471069
2018-06-30T01:36:03.936Z,18.471069
2018-06-30T01:36:14.660Z,18.460999
2018-06-30T01:36:26.392Z,18.471069
2018-06-30T01:36:38.152Z,18.460999
2018-06-30T01:36:49.899Z,18.460999
2018-06-30T01:37:01.644Z,18.460999
2018-06-30T01:37:13.390Z,18.460999
2018-06-30T01:37:25.160Z,18.440857
2018-06-30T01:37:36.915Z,18.440857
2018-06-30T01:37:48.717Z,18.440857
2018-06-30T01:37:59.499Z,18.440857
2018-06-30T01:38:11.252Z,18.440857
2018-06-30T01:38:22.999Z,18.430786
2018-06-30T01:38:34.760Z,18.430786
2018-06-30T01:38:46.547Z,18.430786
2018-06-30T01:38:58.302Z,18.430786
2018-06-30T01:39:10.079Z,18.420715
2018-06-30T01:39:21.847Z,18.440857
2018-06-30T01:39:32.598Z,18.440857
2018-06-30T01:39:43.336Z,18.430786
2018-06-30T01:39:55.083Z,18.430786
2018-06-30T01:40:06.837Z,18.430786
2018-06-30T01:40:18.620Z,18.420715
2018-06-30T01:40:29.372Z,18.430786
2018-06-30T01:40:41.122Z,18.430786
2018-06-30T01:40:52.872Z,18.420715
2018-06-30T01:41:04.609Z,18.420715
2018-06-30T01:41:16.386Z,18.420715
2018-06-30T01:41:28.140Z,18.430786
2018-06-30T01:41:38.888Z,18.420715
2018-06-30T01:41:50.647Z,18.430786
2018-06-30T01:42:01.388Z,18.420715
2018-06-30T01:42:13.138Z,18.420715
2018-06-30T01:42:24.889Z,18.430786
2018-06-30T01:42:36.654Z,18.420715
2018-06-30T01:42:47.417Z,18.420715
2018-06-30T01:42:59.172Z,18.400574
2018-06-30T01:43:10.931Z,18.400574
2018-06-30T01:43:22.679Z,18.400574
2018-06-30T01:43:34.447Z,18.390503
2018-06-30T01:43:45.197Z,18.370361
2018-06-30T01:43:57.518Z,18.340149
2018-06-30T01:44:08.239Z,18.340149
2018-06-30T01:44:19.987Z,18.330078
2018-06-30T01:44:30.727Z,18.330078
2018-06-30T01:44:42.489Z,18.330078
2018-06-30T01:44:54.251Z,18.309937
2018-06-30T01:45:06.044Z,18.289795
2018-06-30T01:45:17.804Z,18.279724
2018-06-30T01:45:29.573Z,18.279724
2018-06-30T01:45:41.327Z,18.279724
2018-06-30T01:45:53.109Z,18.279724
2018-06-30T01:46:04.854Z,18.279724
2018-06-30T01:46:16.649Z,18.279724
2018-06-30T01:46:28.439Z,18.279724
2018-06-30T01:46:40.181Z,18.269653
2018-06-30T01:46:51.948Z,18.249512
2018-06-30T01:47:02.707Z,18.249512
2018-06-30T01:47:13.448Z,18.249512
2018-06-30T01:47:23.203Z,18.249512
2018-06-30T01:47:34.963Z,18.269653
2018-06-30T01:47:46.731Z,18.249512
2018-06-30T01:47:58.486Z,18.249512
2018-06-30T01:48:10.246Z,18.239441
2018-06-30T01:48:21.982Z,18.239441
2018-06-30T01:48:32.724Z,18.239441
2018-06-30T01:48:43.476Z,18.239441
2018-06-30T01:48:55.216Z,18.249512
2018-06-30T01:49:06.965Z,18.249512
2018-06-30T01:49:18.732Z,18.239441
2018-06-30T01:49:30.508Z,18.219299
2018-06-30T01:49:42.301Z,18.219299
2018-06-30T01:49:54.068Z,18.219299
2018-06-30T01:50:04.824Z,18.209229
2018-06-30T01:50:16.603Z,18.209229
2018-06-30T01:50:28.358Z,18.209229
2018-06-30T01:50:40.131Z,18.219299
2018-06-30T01:50:51.903Z,18.219299
2018-06-30T01:51:03.633Z,18.209229
2018-06-30T01:51:15.389Z,18.219299
2018-06-30T01:51:27.136Z,18.219299
2018-06-30T01:51:36.920Z,18.239441
2018-06-30T01:51:48.667Z,18.219299
2018-06-30T01:52:00.479Z,18.219299
2018-06-30T01:52:11.231Z,18.219299
2018-06-30T01:52:23.000Z,18.239441
2018-06-30T01:52:34.760Z,18.239441
2018-06-30T01:52:46.517Z,18.219299
2018-06-30T01:52:58.263Z,18.239441
2018-06-30T01:53:10.006Z,18.239441
2018-06-30T01:53:21.778Z,18.239441
2018-06-30T01:53:33.558Z,18.219299
2018-06-30T01:53:45.288Z,18.219299
2018-06-30T01:53:57.049Z,18.209229
2018-06-30T01:54:08.797Z,18.219299
2018-06-30T01:54:20.547Z,18.219299
2018-06-30T01:54:32.295Z,18.209229
2018-06-30T01:54:43.039Z,18.209229
2018-06-30T01:54:53.783Z,18.219299
2018-06-30T01:55:04.529Z,18.219299
2018-06-30T01:55:16.275Z,18.219299
2018-06-30T01:55:28.029Z,18.239441
2018-06-30T01:55:39.775Z,18.219299
2018-06-30T01:55:51.532Z,18.219299
2018-06-30T01:56:03.307Z,18.219299
2018-06-30T01:56:15.073Z,18.219299
2018-06-30T01:56:26.826Z,18.219299
2018-06-30T01:56:38.564Z,18.219299
2018-06-30T01:56:51.120Z,18.209229
2018-06-30T01:57:02.891Z,18.209229
2018-06-30T01:57:14.664Z,18.209229
2018-06-30T01:57:26.428Z,18.219299
2018-06-30T01:57:38.203Z,18.189087
2018-06-30T01:57:49.943Z,18.189087
2018-06-30T01:58:00.713Z,18.209229
2018-06-30T01:58:12.494Z,18.189087
2018-06-30T01:58:24.273Z,18.209229
2018-06-30T01:58:35.986Z,18.209229
2018-06-30T01:58:48.713Z,18.189087
2018-06-30T01:58:59.462Z,18.189087
2018-06-30T01:59:11.216Z,18.179016
2018-06-30T01:59:21.974Z,18.168945
2018-06-30T01:59:32.737Z,18.148804
2018-06-30T01:59:43.487Z,18.148804
2018-06-30T01:59:55.277Z,18.168945
2018-06-30T02:00:07.049Z,18.148804
2018-06-30T02:00:18.783Z,18.148804
2018-06-30T02:00:29.546Z,18.148804
2018-06-30T02:00:41.297Z,18.148804
2018-06-30T02:00:53.088Z,18.148804
2018-06-30T02:01:04.831Z,18.179016
2018-06-30T02:01:16.580Z,18.168945
2018-06-30T02:01:28.333Z,18.168945
2018-06-30T02:01:38.084Z,18.179016
2018-06-30T02:01:49.829Z,18.179016
2018-06-30T02:02:01.593Z,18.179016
2018-06-30T02:02:12.330Z,18.179016
2018-06-30T02:02:23.080Z,18.189087
2018-06-30T02:02:34.847Z,18.189087
2018-06-30T02:02:45.585Z,18.189087
2018-06-30T02:02:57.336Z,18.189087
2018-06-30T02:03:09.098Z,18.209229
2018-06-30T02:03:19.844Z,18.189087
2018-06-30T02:03:31.633Z,18.179016
2018-06-30T02:03:42.374Z,18.189087
2018-06-30T02:03:52.107Z,18.189087
2018-06-30T02:04:02.849Z,18.179016
2018-06-30T02:04:14.596Z,18.189087
2018-06-30T02:04:25.374Z,18.189087
2018-06-30T02:04:37.183Z,18.189087
2018-06-30T02:04:48.927Z,18.189087
2018-06-30T02:05:00.694Z,18.179016
2018-06-30T02:05:12.437Z,18.179016
2018-06-30T02:05:24.192Z,18.179016
2018-06-30T02:05:35.937Z,18.179016
2018-06-30T02:05:47.674Z,18.189087
2018-06-30T02:05:58.458Z,18.189087
2018-06-30T02:06:10.193Z,18.189087
2018-06-30T02:06:21.931Z,18.179016
2018-06-30T02:06:33.687Z,18.179016
2018-06-30T02:06:45.430Z,18.179016
2018-06-30T02:06:57.185Z,18.189087
2018-06-30T02:07:08.939Z,18.209229
2018-06-30T02:07:20.685Z,18.189087
2018-06-30T02:07:32.451Z,18.189087
2018-06-30T02:07:44.199Z,18.209229
2018-06-30T02:07:55.974Z,18.209229
2018-06-30T02:08:07.751Z,18.209229
2018-06-30T02:08:19.503Z,18.189087
2018-06-30T02:08:30.276Z,18.179016
2018-06-30T02:08:42.018Z,18.189087
2018-06-30T02:08:53.814Z,18.209229
2018-06-30T02:09:05.569Z,18.189087
2018-06-30T02:09:15.329Z,18.189087
2018-06-30T02:09:26.097Z,18.189087
2018-06-30T02:09:36.876Z,18.189087
2018-06-30T02:09:48.643Z,18.189087
2018-06-30T02:10:00.385Z,18.179016
2018-06-30T02:10:12.146Z,18.179016
2018-06-30T02:10:23.910Z,18.168945
2018-06-30T02:10:35.657Z,18.168945
2018-06-30T02:10:47.447Z,18.148804
2018-06-30T02:10:58.210Z,18.168945
2018-06-30T02:11:09.957Z,18.148804
2018-06-30T02:11:20.718Z,18.148804
2018-06-30T02:11:31.467Z,18.148804